createdAt,value
2022-08-07T00:00:39.847Z,6.90
2022-08-07T00:03:09.128Z,6.47
2022-08-07T00:05:37.837Z,7.10
2022-08-07T00:08:07.837Z,6.87
2022-08-07T00:10:36.445Z,8.40
2022-08-07T00:13:23.741Z,6.03
2022-08-07T00:15:54.765Z,7.13
2022-08-07T00:18:25.248Z,6.53
2022-08-07T00:20:54.728Z,6.97
2022-08-07T00:23:24.768Z,6.10
2022-08-07T00:26:00.067Z,6.70
2022-08-07T00:28:34.364Z,7.43
2022-08-07T00:31:06.133Z,9.70
2022-08-07T00:33:41.639Z,9.13
2022-08-07T00:36:10.938Z,6.53
2022-08-07T00:38:40.247Z,6.40
2022-08-07T00:41:09.981Z,6.40
2022-08-07T00:44:01.432Z,5.80
2022-08-07T00:46:33.191Z,6.00
2022-08-07T00:49:03.286Z,6.03
2022-08-07T00:51:58.732Z,6.10
2022-08-07T00:54:20.564Z,6.20
2022-08-07T00:56:51.741Z,5.80
2022-08-07T00:59:35.825Z,6.17
2022-08-07T01:02:06.221Z,6.03
2022-08-07T01:04:43.250Z,6.03
2022-08-07T01:07:13.347Z,6.47
2022-08-07T01:10:05.125Z,6.50
2022-08-07T01:12:31.060Z,5.90
2022-08-07T01:15:04.397Z,5.57
2022-08-07T01:17:33.573Z,6.40
2022-08-07T01:20:07.898Z,5.50
2022-08-07T01:22:47.025Z,6.23
2022-08-07T01:25:54.398Z,6.40
2022-08-07T01:28:15.703Z,6.93
2022-08-07T01:30:45.611Z,5.77
2022-08-07T01:33:16.593Z,5.60
2022-08-07T01:35:54.427Z,5.40
2022-08-07T01:38:35.693Z,6.20
2022-08-07T01:41:13.165Z,5.67
2022-08-07T01:43:55.425Z,5.13
2022-08-07T01:46:23.569Z,5.77
2022-08-07T01:48:51.620Z,6.40
2022-08-07T01:52:01.498Z,6.33
2022-08-07T01:54:33.146Z,4.90
2022-08-07T01:57:08.989Z,5.53
2022-08-07T01:59:56.951Z,4.90
2022-08-07T02:03:11.416Z,5.40
2022-08-07T02:05:43.147Z,5.57
2022-08-07T02:08:23.858Z,4.73
2022-08-07T02:10:59.313Z,5.00
2022-08-07T02:13:58.311Z,5.53
2022-08-07T02:16:29.951Z,5.00
2022-08-07T02:19:05.794Z,5.50
2022-08-07T02:21:55.831Z,5.17
2022-08-07T02:24:26.328Z,5.23
2022-08-07T02:27:02.565Z,5.40
2022-08-07T02:29:34.374Z,4.93
2022-08-07T02:32:06.522Z,4.33
2022-08-07T02:34:48.961Z,4.70
2022-08-07T02:37:23.035Z,5.27
2022-08-07T02:40:29.574Z,5.93
2022-08-07T02:42:47.493Z,4.97
2022-08-07T02:45:59.354Z,6.00
2022-08-07T02:48:10.185Z,5.77
2022-08-07T02:50:49.339Z,5.30
2022-08-07T02:53:27.570Z,5.17
2022-08-07T02:56:03.127Z,4.60
2022-08-07T02:58:39.683Z,5.23
2022-08-07T03:01:18.998Z,3.80
2022-08-07T03:04:12.683Z,5.73
2022-08-07T03:06:45.943Z,4.10
2022-08-07T03:09:42.417Z,4.10
2022-08-07T03:12:11.539Z,5.00
2022-08-07T03:14:56.296Z,4.60
2022-08-07T03:17:24.890Z,3.93
2022-08-07T03:19:55.910Z,4.70
2022-08-07T03:22:30.251Z,4.70
2022-08-07T03:25:00.867Z,5.50
2022-08-07T03:27:42.193Z,4.60
2022-08-07T03:30:26.867Z,4.60
2022-08-07T03:33:00.859Z,4.53
2022-08-07T03:35:44.017Z,4.50
2022-08-07T03:38:20.918Z,4.77
2022-08-07T03:40:53.930Z,4.07
2022-08-07T03:43:26.783Z,4.53
2022-08-07T03:46:10.327Z,4.87
2022-08-07T03:49:03.145Z,4.17
2022-08-07T03:51:47.211Z,4.33
2022-08-07T03:54:35.473Z,3.90
2022-08-07T03:57:08.456Z,3.80
2022-08-07T03:59:46.675Z,4.60
2022-08-07T04:02:29.536Z,4.07
2022-08-07T04:04:58.408Z,4.50
2022-08-07T04:07:41.777Z,5.90
2022-08-07T04:10:19.797Z,4.47
2022-08-07T04:12:51.043Z,5.73
2022-08-07T04:15:20.243Z,5.67
2022-08-07T04:18:57.970Z,4.50
2022-08-07T04:20:54.527Z,4.83
2022-08-07T04:23:24.028Z,4.07
2022-08-07T04:26:11.203Z,4.47
2022-08-07T04:28:42.251Z,4.30
2022-08-07T04:31:20.031Z,6.90
2022-08-07T04:33:55.152Z,4.50
2022-08-07T04:36:26.467Z,4.10
2022-08-07T04:38:55.620Z,4.43
2022-08-07T04:41:26.797Z,3.93
2022-08-07T04:44:12.083Z,4.73
2022-08-07T04:47:04.269Z,4.10
2022-08-07T04:49:57.534Z,4.70
2022-08-07T04:52:35.288Z,4.00
2022-08-07T04:55:14.922Z,4.50
2022-08-07T04:58:33.718Z,3.90
2022-08-07T05:01:03.722Z,4.43
2022-08-07T05:04:06.975Z,3.87
2022-08-07T05:06:51.219Z,3.90
2022-08-07T05:09:46.250Z,3.77
2022-08-07T05:12:30.441Z,3.80
2022-08-07T05:15:21.705Z,3.70
2022-08-07T05:18:00.834Z,4.10
2022-08-07T05:20:35.891Z,3.93
2022-08-07T05:23:15.602Z,3.87
2022-08-07T05:26:13.307Z,3.40
2022-08-07T05:28:36.481Z,3.93
2022-08-07T05:31:12.698Z,3.33
2022-08-07T05:33:51.327Z,4.00
2022-08-07T05:36:32.425Z,4.30
2022-08-07T05:40:04.973Z,3.53
2022-08-07T05:42:05.307Z,3.47
2022-08-07T05:44:41.445Z,5.80
2022-08-07T05:47:17.797Z,3.30
2022-08-07T05:49:49.372Z,3.53
2022-08-07T05:52:20.099Z,3.33
2022-08-07T05:54:55.855Z,4.00
2022-08-07T05:57:30.210Z,3.50
2022-08-07T06:00:03.744Z,4.30
2022-08-07T06:02:41.777Z,3.20
2022-08-07T06:05:16.341Z,3.80
2022-08-07T06:08:14.682Z,4.13
2022-08-07T06:10:42.710Z,3.70
2022-08-07T06:13:13.654Z,4.00
2022-08-07T06:15:45.439Z,3.20
2022-08-07T06:18:22.772Z,3.43
2022-08-07T06:22:15.471Z,3.10
2022-08-07T06:24:37.009Z,3.40
2022-08-07T06:26:34.953Z,3.47
2022-08-07T06:29:04.143Z,4.27
2022-08-07T06:31:46.516Z,3.93
2022-08-07T06:34:19.598Z,3.30
2022-08-07T06:36:51.985Z,3.57
2022-08-07T06:40:17.324Z,3.73
2022-08-07T06:42:19.205Z,3.33
2022-08-07T06:45:11.505Z,3.17
2022-08-07T06:47:57.412Z,3.33
2022-08-07T06:50:30.628Z,4.20
2022-08-07T06:53:04.079Z,3.77
2022-08-07T06:55:53.387Z,3.90
2022-08-07T06:58:28.831Z,3.40
2022-08-07T07:01:09.871Z,4.37
2022-08-07T07:03:49.331Z,4.40
2022-08-07T07:06:26.139Z,5.33
2022-08-07T07:08:56.840Z,4.53
2022-08-07T07:12:08.644Z,7.37
2022-08-07T07:14:17.766Z,4.97
2022-08-07T07:16:51.188Z,3.13
2022-08-07T07:19:56.100Z,6.63
2022-08-07T07:22:34.191Z,3.17
2022-08-07T07:26:33.481Z,2.70
2022-08-07T07:28:03.198Z,3.30
2022-08-07T07:30:40.311Z,3.27
2022-08-07T07:33:12.278Z,3.80
2022-08-07T07:36:05.082Z,2.90
2022-08-07T07:38:36.035Z,3.00
2022-08-07T07:41:08.842Z,2.87
2022-08-07T07:44:14.637Z,2.90
2022-08-07T07:46:40.388Z,2.73
2022-08-07T07:50:35.902Z,2.90
2022-08-07T07:52:12.769Z,3.10
2022-08-07T07:54:50.707Z,3.97
2022-08-07T07:57:51.901Z,3.97
2022-08-07T08:00:12.192Z,3.43
2022-08-07T08:03:05.303Z,2.83
2022-08-07T08:05:51.121Z,2.90
2022-08-07T08:08:32.327Z,3.03
2022-08-07T08:11:05.377Z,4.57
2022-08-07T08:13:52.714Z,3.87
2022-08-07T08:16:29.986Z,2.80
2022-08-07T08:19:09.722Z,3.10
2022-08-07T08:22:07.867Z,2.90
2022-08-07T08:25:04.399Z,2.77
2022-08-07T08:27:55.949Z,4.27
2022-08-07T08:30:27.984Z,2.87
2022-08-07T08:32:59.921Z,3.20
2022-08-07T08:35:42.881Z,4.83
2022-08-07T08:38:17.888Z,3.40
2022-08-07T08:40:57.793Z,3.03
2022-08-07T08:43:42.948Z,2.97
2022-08-07T08:46:30.084Z,3.30
2022-08-07T08:49:05.102Z,3.53
2022-08-07T08:52:13.052Z,3.47
2022-08-07T08:54:48.375Z,3.67
2022-08-07T08:57:27.039Z,4.47
2022-08-07T09:00:05.082Z,5.20
2022-08-07T09:02:41.900Z,6.80
2022-08-07T09:05:32.328Z,4.13
2022-08-07T09:08:24.362Z,3.47
2022-08-07T09:11:14.107Z,3.43
2022-08-07T09:14:04.661Z,3.97
2022-08-07T09:16:42.857Z,4.43
2022-08-07T09:19:44.873Z,5.93
2022-08-07T09:24:28.823Z,4.40
2022-08-07T09:25:27.338Z,7.23
2022-08-07T09:28:05.114Z,5.67
2022-08-07T09:30:54.551Z,9.43
2022-08-07T09:33:57.740Z,7.67
2022-08-07T09:36:35.853Z,6.07
2022-08-07T09:39:54.626Z,15.20
2022-08-07T09:42:23.165Z,18.80
2022-08-07T09:47:49.423Z,18.80
2022-08-07T09:48:11.722Z,9.03
2022-08-07T09:50:57.024Z,6.40
2022-08-07T09:53:40.871Z,5.10
2022-08-07T09:56:33.860Z,5.70
2022-08-07T09:59:35.706Z,4.50
2022-08-07T10:02:31.893Z,6.07
2022-08-07T10:05:17.276Z,11.97
2022-08-07T10:08:05.211Z,9.80
2022-08-07T10:11:59.092Z,11.10
2022-08-07T10:14:02.098Z,5.50
2022-08-07T10:16:59.555Z,4.07
2022-08-07T10:19:43.971Z,4.30
2022-08-07T10:22:45.357Z,3.80
2022-08-07T10:25:42.527Z,3.73
2022-08-07T10:28:43.365Z,3.30
2022-08-07T10:31:39.357Z,3.37
2022-08-07T10:34:27.191Z,3.03
2022-08-07T10:37:48.170Z,3.50
2022-08-07T10:40:20.735Z,3.60
2022-08-07T10:42:59.108Z,3.23
2022-08-07T10:45:57.262Z,3.33
2022-08-07T10:48:34.896Z,3.27
2022-08-07T10:51:16.789Z,3.90
2022-08-07T10:54:07.924Z,3.70
2022-08-07T10:56:45.208Z,3.27
2022-08-07T10:59:30.399Z,4.40
2022-08-07T11:02:12.249Z,5.40
2022-08-07T11:05:19.008Z,3.43
2022-08-07T11:08:01.171Z,4.80
2022-08-07T11:10:39.588Z,3.20
2022-08-07T11:14:42.074Z,6.07
2022-08-07T11:16:07.449Z,4.23
2022-08-07T11:18:40.293Z,3.03
2022-08-07T11:21:23.227Z,4.20
2022-08-07T11:23:58.892Z,6.17
2022-08-07T11:26:34.692Z,3.87
2022-08-07T11:29:13.209Z,4.37
2022-08-07T11:32:08.957Z,5.20
2022-08-07T11:34:48.670Z,3.87
2022-08-07T11:37:57.427Z,6.87
2022-08-07T11:40:34.557Z,6.40
2022-08-07T11:43:15.374Z,7.73
2022-08-07T11:46:03.116Z,3.67
2022-08-07T11:49:51.579Z,5.83
2022-08-07T11:52:14.436Z,3.47
2022-08-07T11:55:00.154Z,4.00
2022-08-07T11:57:59.886Z,3.60
2022-08-07T12:00:35.257Z,5.47
2022-08-07T12:03:42.217Z,3.53
2022-08-07T12:06:50.901Z,5.53
2022-08-07T12:09:27.208Z,5.47
2022-08-07T12:12:10.592Z,6.73
2022-08-07T12:14:53.781Z,6.93
2022-08-07T12:17:33.804Z,10.50
2022-08-07T12:20:18.583Z,10.67
2022-08-07T12:23:17.996Z,8.90
2022-08-07T12:26:28.651Z,10.67
2022-08-07T12:29:08.658Z,9.13
2022-08-07T12:31:53.138Z,8.07
2022-08-07T12:34:34.279Z,6.57
2022-08-07T12:37:08.761Z,4.83
2022-08-07T12:39:50.973Z,4.87
2022-08-07T12:42:27.763Z,4.43
2022-08-07T12:45:04.465Z,4.23
2022-08-07T12:47:44.080Z,4.53
2022-08-07T12:50:38.993Z,4.00
2022-08-07T12:53:17.724Z,3.33
2022-08-07T12:56:02.750Z,4.03
2022-08-07T12:58:39.545Z,3.70
2022-08-07T13:01:20.541Z,3.37
2022-08-07T13:04:04.875Z,2.93
2022-08-07T13:07:04.292Z,3.53
2022-08-07T13:10:21.994Z,3.33
2022-08-07T13:12:51.621Z,3.10
2022-08-07T13:15:29.533Z,3.33
2022-08-07T13:18:26.408Z,3.73
2022-08-07T13:21:00.834Z,3.60
2022-08-07T13:24:01.195Z,4.80
2022-08-07T13:26:34.667Z,4.57
2022-08-07T13:29:15.328Z,4.07
2022-08-07T13:31:57.672Z,4.57
2022-08-07T13:34:39.308Z,5.63
2022-08-07T13:37:22.972Z,4.20
2022-08-07T13:40:35.645Z,4.00
2022-08-07T13:42:53.629Z,4.23
2022-08-07T13:46:12.897Z,3.30
2022-08-07T13:48:27.867Z,4.37
2022-08-07T13:51:20.500Z,3.17
2022-08-07T13:54:00.874Z,4.60
2022-08-07T13:56:36.170Z,3.30
2022-08-07T13:59:13.168Z,3.50
2022-08-07T14:01:51.175Z,3.60
2022-08-07T14:04:36.380Z,4.23
2022-08-07T14:07:10.127Z,5.00
2022-08-07T14:10:01.402Z,3.67
2022-08-07T14:12:41.778Z,3.33
2022-08-07T14:15:31.977Z,4.70
2022-08-07T14:18:15.859Z,4.90
2022-08-07T14:21:08.344Z,12.13
2022-08-07T14:24:01.020Z,4.03
2022-08-07T14:26:40.631Z,3.40
2022-08-07T14:30:04.985Z,4.90
2022-08-07T14:32:13.310Z,3.37
2022-08-07T14:34:47.946Z,3.73
2022-08-07T14:37:19.307Z,6.37
2022-08-07T14:40:16.165Z,3.93
2022-08-07T14:43:55.143Z,4.00
2022-08-07T14:45:47.172Z,3.50
2022-08-07T14:48:21.179Z,3.90
2022-08-07T14:50:53.422Z,3.60
2022-08-07T14:54:05.764Z,3.77
2022-08-07T14:56:15.354Z,3.40
2022-08-07T14:59:02.094Z,3.90
2022-08-07T15:01:42.880Z,3.23
2022-08-07T15:04:25.141Z,3.50
2022-08-07T15:06:53.800Z,4.00
2022-08-07T15:12:26.211Z,4.13
2022-08-07T15:15:09.343Z,4.40
2022-08-07T15:17:57.177Z,3.90
2022-08-07T15:20:54.611Z,3.90
2022-08-07T15:25:03.954Z,4.00
2022-08-07T15:26:21.246Z,4.40
2022-08-07T15:30:03.719Z,3.97
2022-08-07T15:32:00.571Z,3.77
2022-08-07T15:34:36.049Z,3.73
2022-08-07T15:37:06.906Z,3.67
2022-08-07T15:42:51.875Z,3.70
2022-08-07T15:45:55.835Z,4.20
2022-08-07T15:48:25.939Z,4.23
2022-08-07T15:51:09.562Z,4.97
2022-08-07T15:53:52.260Z,4.30
2022-08-07T15:56:24.088Z,4.83
2022-08-07T15:58:57.174Z,4.07
2022-08-07T16:01:38.962Z,4.53
2022-08-07T16:04:14.748Z,4.77
2022-08-07T16:06:49.281Z,5.87
2022-08-07T16:09:23.140Z,4.67
2022-08-07T16:12:04.097Z,4.17
2022-08-07T16:14:49.620Z,4.77
2022-08-07T16:18:01.599Z,5.73
2022-08-07T16:20:44.181Z,3.80
2022-08-07T16:23:53.878Z,4.80
2022-08-07T16:26:59.486Z,4.63
2022-08-07T16:30:11.407Z,4.77
2022-08-07T16:32:46.183Z,4.53
2022-08-07T16:35:56.522Z,4.70
2022-08-07T16:38:57.422Z,4.00
2022-08-07T16:41:54.285Z,3.80
2022-08-07T16:45:15.190Z,4.63
2022-08-07T16:48:16.227Z,3.77
2022-08-07T16:51:54.446Z,4.60
2022-08-07T16:54:19.041Z,4.20
2022-08-07T16:57:15.543Z,4.53
2022-08-07T16:59:51.775Z,3.80
2022-08-07T17:02:52.431Z,5.80
2022-08-07T17:06:28.652Z,5.50
2022-08-07T17:09:09.952Z,3.67
2022-08-07T17:12:01.527Z,3.80
2022-08-07T17:14:26.224Z,7.17
2022-08-07T17:16:58.420Z,4.10
2022-08-07T17:20:02.310Z,4.23
2022-08-07T17:22:37.835Z,8.13
2022-08-07T17:25:15.571Z,4.40
2022-08-07T17:27:56.070Z,4.03
2022-08-07T17:30:27.827Z,3.90
2022-08-07T17:34:08.846Z,4.77
2022-08-07T17:36:03.757Z,4.97
2022-08-07T17:38:40.663Z,4.27
2022-08-07T17:42:04.207Z,4.53
2022-08-07T17:44:34.196Z,4.10
2022-08-07T17:47:42.220Z,3.67
2022-08-07T17:50:19.383Z,3.77
2022-08-07T17:52:55.244Z,3.90
2022-08-07T17:56:01.359Z,4.10
2022-08-07T17:58:30.430Z,4.47
2022-08-07T18:01:20.708Z,3.90
2022-08-07T18:04:08.068Z,5.03
2022-08-07T18:06:58.175Z,8.93
2022-08-07T18:10:04.437Z,8.20
2022-08-07T18:12:41.584Z,4.37
2022-08-07T18:15:13.491Z,8.30
2022-08-07T18:18:46.071Z,4.00
2022-08-07T18:21:09.696Z,5.37
2022-08-07T18:23:46.843Z,9.33
2022-08-07T18:26:26.385Z,6.00
2022-08-07T18:30:08.444Z,4.33
2022-08-07T18:32:09.870Z,4.00
2022-08-07T18:35:01.134Z,4.13
2022-08-07T18:38:56.988Z,4.57
2022-08-07T18:40:59.796Z,4.43
2022-08-07T18:43:58.918Z,4.70
2022-08-07T18:46:43.017Z,3.70
2022-08-07T18:50:32.362Z,3.93
2022-08-07T18:52:53.920Z,4.20
2022-08-07T18:55:42.043Z,4.43
2022-08-07T18:58:35.647Z,4.00
2022-08-07T19:02:19.301Z,4.07
2022-08-07T19:04:25.061Z,3.60
2022-08-07T19:07:08.431Z,6.33
2022-08-07T19:09:56.291Z,5.37
2022-08-07T19:12:35.622Z,4.07
2022-08-07T19:16:05.804Z,4.30
2022-08-07T19:18:34.981Z,3.93
2022-08-07T19:21:44.137Z,4.07
2022-08-07T19:24:06.234Z,4.37
2022-08-07T19:27:16.724Z,4.73
2022-08-07T19:31:05.679Z,4.33
2022-08-07T19:32:25.684Z,4.70
2022-08-07T19:35:02.975Z,3.87
2022-08-07T19:37:55.111Z,4.43
2022-08-07T19:40:31.585Z,3.63
2022-08-07T19:43:09.596Z,4.20
2022-08-07T19:46:07.131Z,15.20
2022-08-07T19:48:42.901Z,4.10
2022-08-07T19:51:19.598Z,4.10
2022-08-07T19:54:35.148Z,3.70
2022-08-07T19:57:51.751Z,5.27
2022-08-07T19:59:40.621Z,3.60
2022-08-07T20:02:19.649Z,4.20
2022-08-07T20:05:09.323Z,3.83
2022-08-07T20:07:47.906Z,5.00
2022-08-07T20:10:54.646Z,4.30
2022-08-07T20:13:34.425Z,4.37
2022-08-07T20:16:15.756Z,4.23
2022-08-07T20:19:01.747Z,5.23
2022-08-07T20:22:41.435Z,4.00
2022-08-07T20:25:25.481Z,4.63
2022-08-07T20:27:58.381Z,4.00
2022-08-07T20:30:32.552Z,4.43
2022-08-07T20:33:02.315Z,4.20
2022-08-07T20:35:37.077Z,4.57
2022-08-07T20:38:24.478Z,6.03
2022-08-07T20:41:01.030Z,6.83
2022-08-07T20:43:35.102Z,5.70
2022-08-07T20:46:28.786Z,4.57
2022-08-07T20:49:54.283Z,4.90
2022-08-07T20:51:50.193Z,5.43
2022-08-07T20:54:30.195Z,4.90
2022-08-07T20:57:08.323Z,5.47
2022-08-07T21:00:06.283Z,5.07
2022-08-07T21:02:53.939Z,6.53
2022-08-07T21:05:42.931Z,8.50
2022-08-07T21:08:15.482Z,5.73
2022-08-07T21:10:44.580Z,4.67
2022-08-07T21:13:24.421Z,5.50
2022-08-07T21:16:10.157Z,4.87
2022-08-07T21:18:46.370Z,8.20
2022-08-07T21:21:21.576Z,9.53
2022-08-07T21:24:06.141Z,5.10
2022-08-07T21:26:42.889Z,5.13
2022-08-07T21:29:18.489Z,4.37
2022-08-07T21:32:46.795Z,5.13
2022-08-07T21:34:52.838Z,4.87
2022-08-07T21:37:57.436Z,5.30
2022-08-07T21:40:24.152Z,7.70
2022-08-07T21:43:00.825Z,5.10
2022-08-07T21:46:09.841Z,12.87
2022-08-07T21:48:34.449Z,14.83
2022-08-07T21:51:19.731Z,12.10
2022-08-07T21:53:55.723Z,7.83
2022-08-07T21:56:47.231Z,6.13
2022-08-07T21:59:26.920Z,6.87
2022-08-07T22:02:10.385Z,6.07
2022-08-07T22:04:51.055Z,4.30
2022-08-07T22:07:48.601Z,5.33
2022-08-07T22:10:15.124Z,4.40
2022-08-07T22:12:49.698Z,4.80
2022-08-07T22:16:43.305Z,4.80
2022-08-07T22:18:17.632Z,4.23
2022-08-07T22:20:55.841Z,4.40
2022-08-07T22:23:31.421Z,4.30
2022-08-07T22:26:06.139Z,5.80
2022-08-07T22:28:42.514Z,6.77
2022-08-07T22:31:45.604Z,4.57
2022-08-07T22:34:29.249Z,4.10
2022-08-07T22:37:13.040Z,5.40
2022-08-07T22:39:52.750Z,4.33
2022-08-07T22:42:26.024Z,4.47
2022-08-07T22:45:02.307Z,4.00
2022-08-07T22:47:59.513Z,4.00
2022-08-07T22:50:43.485Z,4.73
2022-08-07T22:54:05.453Z,5.63
2022-08-07T22:56:24.746Z,4.27
2022-08-07T22:59:24.940Z,4.07
2022-08-07T23:02:08.439Z,4.50
2022-08-07T23:06:06.947Z,4.53
2022-08-07T23:07:59.248Z,5.33
2022-08-07T23:10:42.543Z,5.70
2022-08-07T23:13:48.458Z,4.60
2022-08-07T23:16:54.606Z,4.30
2022-08-07T23:19:58.577Z,4.43
2022-08-07T23:22:45.294Z,3.70
2022-08-07T23:25:28.603Z,5.00
2022-08-07T23:28:21.410Z,5.87
2022-08-07T23:31:11.757Z,4.47
2022-08-07T23:34:34.961Z,4.67
2022-08-07T23:37:22.454Z,5.70
2022-08-07T23:40:04.380Z,5.33
2022-08-07T23:42:54.555Z,4.90
2022-08-07T23:46:02.806Z,5.33
2022-08-07T23:48:41.856Z,4.30
2022-08-07T23:52:58.451Z,5.43
2022-08-07T23:54:19.444Z,4.50
2022-08-07T23:57:05.450Z,3.87
